Time;durP1;ratioP1;P1;durP2;ratioP2;P2;SDS_P1;SDS_P2;PMS_P1;PMS_P2;Temp;Humidity;BMP_temperature;BMP_pressure;BME280_temperature;BME280_humidity;BME280_pressure;Samples;Min_cycle;Max_cycle;Signal;HPM_P1;HPM_P2
2021/12/14 00:01:17;;;;;;;28.93;17.27;;;8.40;99.90;;;;;;5096339;28;20413;-84
2021/12/14 00:03:45;;;;;;;25.73;15.40;;;8.40;99.90;;;;;;5089316;28;20433;-84
2021/12/14 00:06:12;;;;;;;20.53;13.73;;;8.40;99.90;;;;;;5076316;28;20428;-83
2021/12/14 00:08:47;;;;;;;23.37;13.93;;;8.40;99.90;;;;;;5075297;28;20430;-81
2021/12/14 00:11:30;;;;;;;23.47;14.00;;;8.40;99.90;;;;;;5091418;28;20439;-86
2021/12/14 00:16:57;;;;;;;20.60;13.50;;;8.40;99.90;;;;;;5038751;28;20474;-86
2021/12/14 00:19:26;;;;;;;20.10;13.40;;;8.40;99.90;;;;;;5075952;28;20415;-84
2021/12/14 00:21:54;;;;;;;22.33;14.80;;;8.40;99.90;;;;;;5075952;28;20426;-85
2021/12/14 00:24:25;;;;;;;21.30;14.70;;;8.40;99.90;;;;;;5074548;28;20431;-85
2021/12/14 00:26:59;;;;;;;31.43;15.10;;;8.40;99.90;;;;;;5075428;28;20927;-83
2021/12/14 00:29:35;;;;;;;22.00;16.53;;;8.40;99.90;;;;;;5075899;28;20440;-83
2021/12/14 00:32:06;;;;;;;19.60;14.20;;;8.40;99.90;;;;;;5075725;28;20805;-85
2021/12/14 00:34:41;;;;;;;20.63;13.53;;;8.40;99.90;;;;;;5075625;28;20903;-85
2021/12/14 00:37:24;;;;;;;24.63;15.83;;;8.40;99.90;;;;;;5091029;28;20483;-82
2021/12/14 00:39:52;;;;;;;21.47;14.13;;;8.40;99.90;;;;;;5094335;28;20543;-82
2021/12/14 00:42:19;;;;;;;25.63;12.60;;;8.40;99.90;;;;;;5095440;28;20797;-84
2021/12/14 00:44:45;;;;;;;22.00;12.80;;;8.40;99.90;;;;;;5090047;28;20430;-84
2021/12/14 00:47:12;;;;;;;19.83;13.73;;;8.40;99.90;;;;;;5095249;28;20409;-85
2021/12/14 00:49:38;;;;;;;20.73;14.33;;;8.40;99.90;;;;;;5095470;28;20621;-85
2021/12/14 00:52:05;;;;;;;19.60;13.27;;;8.40;99.90;;;;;;5094260;28;20476;-83
2021/12/14 00:54:32;;;;;;;19.40;12.50;;;8.40;99.90;;;;;;5095540;28;20906;-82
2021/12/14 00:56:58;;;;;;;19.90;12.80;;;8.40;99.90;;;;;;5095131;28;20425;-82
2021/12/14 00:59:24;;;;;;;23.23;12.33;;;8.40;99.90;;;;;;5095480;28;20410;-84
2021/12/14 01:01:57;;;;;;;20.00;13.97;;;8.40;99.90;;;;;;5094354;28;20962;-84
2021/12/14 01:04:31;;;;;;;21.20;12.63;;;8.40;99.90;;;;;;5095441;28;20927;-84
2021/12/14 01:06:58;;;;;;;23.37;13.30;;;8.40;99.90;;;;;;5095420;28;20405;-82
2021/12/14 01:09:27;;;;;;;17.77;13.30;;;8.40;99.90;;;;;;5095361;28;20414;-83
2021/12/14 01:12:01;;;;;;;21.93;14.53;;;8.40;99.90;;;;;;5094721;28;20449;-85
2021/12/14 01:14:39;;;;;;;19.47;12.77;;;8.40;99.90;;;;;;5095287;28;20422;-83
2021/12/14 01:17:26;;;;;;;18.07;13.00;;;8.40;99.90;;;;;;5095032;28;20772;-85
2021/12/14 01:19:57;;;;;;;22.27;12.80;;;8.40;99.90;;;;;;5094533;28;20487;-85
2021/12/14 01:25:06;;;;;;;23.10;14.47;;;8.40;99.90;;;;;;5095417;28;20424;-84
2021/12/14 01:27:38;;;;;;;20.10;13.37;;;8.40;99.90;;;;;;5093601;28;20474;-84
2021/12/14 01:30:36;;;;;;;20.90;14.20;;;8.40;99.90;;;;;;5095179;28;20412;-85
2021/12/14 01:33:07;;;;;;;22.47;13.60;;;8.40;99.90;;;;;;5095015;28;20465;-85
2021/12/14 01:35:37;;;;;;;20.57;13.17;;;8.40;99.90;;;;;;5095053;28;20775;-82
2021/12/14 01:38:34;;;;;;;23.77;16.90;;;8.30;99.90;;;;;;5094714;28;20457;-82
2021/12/14 01:41:11;;;;;;;17.33;12.03;;;8.40;99.90;;;;;;5094619;28;20413;-82
2021/12/14 01:44:07;;;;;;;19.10;12.63;;;8.30;99.90;;;;;;5094872;28;20416;-84
2021/12/14 01:46:43;;;;;;;20.50;13.43;;;8.30;99.90;;;;;;5077858;28;20849;-82
2021/12/14 01:49:11;;;;;;;20.17;13.33;;;8.30;99.90;;;;;;5094623;28;20409;-81
2021/12/14 01:51:40;;;;;;;21.20;13.00;;;8.30;99.90;;;;;;5094477;28;20421;-84
2021/12/14 01:54:09;;;;;;;22.67;12.70;;;8.30;99.90;;;;;;5094668;28;20402;-84
2021/12/14 01:56:35;;;;;;;20.40;13.07;;;8.30;99.90;;;;;;5094260;28;20503;-81
2021/12/14 01:59:14;;;;;;;23.47;13.40;;;8.30;99.90;;;;;;5093751;28;20460;-82
2021/12/14 02:01:55;;;;;;;17.60;11.83;;;8.30;99.90;;;;;;5094414;28;20452;-81
2021/12/14 02:04:24;;;;;;;19.00;11.90;;;8.30;99.90;;;;;;5094536;28;20947;-83
2021/12/14 02:07:02;;;;;;;20.60;14.00;;;8.30;99.90;;;;;;5094413;28;20412;-82
2021/12/14 02:09:31;;;;;;;20.13;12.27;;;8.30;99.90;;;;;;5094534;28;20722;-81
2021/12/14 02:12:02;;;;;;;21.53;13.37;;;8.30;99.90;;;;;;5093815;28;20947;-81
2021/12/14 02:14:28;;;;;;;18.23;11.67;;;8.30;99.90;;;;;;5094163;28;20428;-82
2021/12/14 02:16:58;;;;;;;20.70;13.67;;;8.30;99.90;;;;;;5092719;28;20421;-81
2021/12/14 02:19:25;;;;;;;20.33;11.80;;;8.30;99.90;;;;;;5093504;28;20425;-81
2021/12/14 02:21:52;;;;;;;20.23;13.47;;;8.30;99.90;;;;;;5093996;28;20432;-81
2021/12/14 02:24:20;;;;;;;20.07;14.10;;;8.30;99.90;;;;;;5094014;28;20910;-84
2021/12/14 02:26:47;;;;;;;19.07;12.60;;;8.30;99.90;;;;;;5106008;28;20408;-82
2021/12/14 02:29:26;;;;;;;17.77;11.83;;;8.30;99.90;;;;;;5100966;28;20767;-83
2021/12/14 02:31:59;;;;;;;16.37;11.57;;;8.30;99.90;;;;;;5095784;28;20548;-84
2021/12/14 02:34:24;;;;;;;19.90;13.27;;;8.30;99.90;;;;;;5096449;28;20499;-83
2021/12/14 02:36:51;;;;;;;21.70;13.77;;;8.40;99.90;;;;;;5104897;28;20458;-81
2021/12/14 02:40:04;;;;;;;18.13;11.43;;;8.30;99.90;;;;;;5097784;28;20623;-81
2021/12/14 02:42:21;;;;;;;17.47;12.90;;;8.30;99.90;;;;;;5087694;28;20463;-81
2021/12/14 02:44:49;;;;;;;20.33;13.57;;;8.30;99.90;;;;;;5091547;28;20909;-82
2021/12/14 02:47:17;;;;;;;16.80;11.80;;;8.30;99.90;;;;;;5093727;28;20511;-82
2021/12/14 02:49:43;;;;;;;18.13;12.30;;;8.30;99.90;;;;;;5093723;28;20474;-85
2021/12/14 02:52:20;;;;;;;22.10;12.40;;;8.30;99.90;;;;;;5093572;28;20465;-83
2021/12/14 02:54:52;;;;;;;15.63;12.23;;;8.30;99.90;;;;;;5093779;28;20947;-84
2021/12/14 02:57:21;;;;;;;23.03;12.63;;;8.30;99.90;;;;;;5093243;28;20413;-83
2021/12/14 02:59:49;;;;;;;19.97;11.73;;;8.30;99.90;;;;;;5092009;28;20409;-81
2021/12/14 03:02:20;;;;;;;18.10;13.63;;;8.30;99.90;;;;;;5073042;28;20406;-84
2021/12/14 03:04:50;;;;;;;16.57;11.40;;;8.30;99.90;;;;;;5073489;28;20413;-83
2021/12/14 03:07:17;;;;;;;19.77;12.00;;;8.30;99.90;;;;;;5073188;28;20944;-84
2021/12/14 03:12:23;;;;;;;19.93;12.90;;;8.30;99.90;;;;;;5072726;28;20662;-84
2021/12/14 03:14:52;;;;;;;18.90;11.20;;;8.30;99.90;;;;;;5072876;28;20918;-85
2021/12/14 03:17:19;;;;;;;17.40;11.17;;;8.30;99.90;;;;;;5082452;28;20960;-85
2021/12/14 03:19:53;;;;;;;19.07;12.80;;;8.30;99.90;;;;;;5091904;28;20417;-85
2021/12/14 03:22:30;;;;;;;19.00;12.00;;;8.30;99.90;;;;;;5093223;28;20409;-84
2021/12/14 03:24:55;;;;;;;14.33;12.43;;;8.30;99.90;;;;;;5093200;28;20438;-85
2021/12/14 03:27:21;;;;;;;19.63;12.73;;;8.30;99.90;;;;;;5092792;28;20803;-85
2021/12/14 03:29:47;;;;;;;16.90;12.80;;;8.30;99.90;;;;;;5091772;28;20179;-82
2021/12/14 03:32:13;;;;;;;16.20;11.20;;;8.30;99.90;;;;;;5092985;28;20232;-83
2021/12/14 03:34:40;;;;;;;18.03;12.00;;;8.30;99.90;;;;;;5093086;28;20530;-84
2021/12/14 03:37:07;;;;;;;18.70;12.27;;;8.30;99.90;;;;;;5093093;28;20405;-84
2021/12/14 03:39:37;;;;;;;19.10;11.90;;;8.30;99.90;;;;;;5091626;28;20467;-84
2021/12/14 03:42:05;;;;;;;17.40;11.27;;;8.30;99.90;;;;;;5092642;28;20417;-84
2021/12/14 03:44:40;;;;;;;16.73;11.23;;;8.30;99.90;;;;;;5092896;28;20452;-84
2021/12/14 03:47:08;;;;;;;20.47;12.20;;;8.30;99.90;;;;;;5091842;28;20412;-85
2021/12/14 03:49:42;;;;;;;19.00;12.07;;;8.30;99.90;;;;;;5092847;28;20421;-84
2021/12/14 03:52:10;;;;;;;16.87;11.97;;;8.30;99.90;;;;;;5092828;28;20845;-82
2021/12/14 03:54:37;;;;;;;19.03;13.23;;;8.30;99.90;;;;;;5092760;28;20436;-84
2021/12/14 03:57:03;;;;;;;21.00;11.77;;;8.30;99.90;;;;;;5092719;28;20416;-84
2021/12/14 03:59:31;;;;;;;14.07;10.27;;;8.30;99.90;;;;;;5092805;28;20427;-85
2021/12/14 04:01:59;;;;;;;17.07;11.73;;;8.30;99.90;;;;;;5092750;28;20780;-84
2021/12/14 04:04:32;;;;;;;14.47;10.93;;;8.30;99.90;;;;;;5090708;28;20417;-84
2021/12/14 04:07:01;;;;;;;16.53;10.93;;;8.30;99.90;;;;;;5072535;28;20899;-85
2021/12/14 04:09:30;;;;;;;17.47;11.63;;;8.30;99.90;;;;;;5072477;28;20426;-85
2021/12/14 04:11:57;;;;;;;17.37;11.90;;;8.30;99.90;;;;;;5071854;28;20453;-85
2021/12/14 04:14:28;;;;;;;17.00;12.90;;;8.30;99.90;;;;;;5072479;28;20433;-86
2021/12/14 04:16:55;;;;;;;16.30;11.43;;;8.20;99.90;;;;;;5072377;28;20402;-85
2021/12/14 04:19:23;;;;;;;22.50;13.10;;;8.20;99.90;;;;;;5072539;28;20806;-85
2021/12/14 04:21:52;;;;;;;21.63;13.53;;;8.20;99.90;;;;;;5073363;28;20508;-85
2021/12/14 04:24:23;;;;;;;18.00;11.63;;;8.20;99.90;;;;;;5075115;28;20424;-85
2021/12/14 04:26:50;;;;;;;18.00;12.20;;;8.20;99.90;;;;;;5075883;28;20405;-84
2021/12/14 04:29:17;;;;;;;16.83;11.17;;;8.20;99.90;;;;;;5076151;28;20413;-84
2021/12/14 04:31:44;;;;;;;16.57;11.63;;;8.20;99.90;;;;;;5076104;28;20402;-85
2021/12/14 04:34:11;;;;;;;17.03;11.57;;;8.20;99.90;;;;;;5076232;28;20436;-85
2021/12/14 04:36:39;;;;;;;16.37;11.07;;;8.30;99.90;;;;;;5076021;28;20466;-84
2021/12/14 04:53:08;;;;;;;16.93;11.77;;;8.20;99.90;;;;;;5075856;28;20480;-84
2021/12/14 04:55:34;;;;;;;19.17;12.40;;;8.20;99.90;;;;;;5075474;28;20409;-85
2021/12/14 04:57:59;;;;;;;12.73;9.93;;;8.20;99.90;;;;;;5075646;28;20422;-85
2021/12/14 05:00:54;;;;;;;15.70;11.10;;;8.20;99.90;;;;;;5075838;28;20173;-84
2021/12/14 05:03:25;;;;;;;19.30;11.87;;;8.20;99.90;;;;;;5071604;28;20536;-86
2021/12/14 05:06:07;;;;;;;14.97;10.90;;;8.20;99.90;;;;;;5075604;28;20459;-85
2021/12/14 05:11:05;;;;;;;17.73;9.93;;;8.10;99.90;;;;;;5092969;28;20818;-85
2021/12/14 05:13:41;;;;;;;14.47;11.53;;;8.20;99.90;;;;;;5094356;28;20472;-85
2021/12/14 05:16:08;;;;;;;13.70;10.70;;;8.20;99.90;;;;;;5094337;28;20433;-85
2021/12/14 05:18:34;;;;;;;14.53;9.40;;;8.10;99.90;;;;;;5090005;28;20442;-86
2021/12/14 05:21:00;;;;;;;16.93;10.13;;;8.20;99.90;;;;;;5075261;28;20417;-85
2021/12/14 05:23:33;;;;;;;14.33;11.23;;;8.20;99.90;;;;;;5075216;28;20765;-86
2021/12/14 05:26:02;;;;;;;15.03;10.40;;;8.20;99.90;;;;;;5074803;28;20414;-85
2021/12/14 05:28:29;;;;;;;15.60;12.00;;;8.20;99.90;;;;;;5075101;28;20825;-85
2021/12/14 05:30:57;;;;;;;15.97;10.63;;;8.10;99.90;;;;;;5075168;28;20406;-87
2021/12/14 05:33:29;;;;;;;16.23;11.03;;;8.10;99.90;;;;;;5075129;28;20978;-86
2021/12/14 05:35:58;;;;;;;16.33;11.30;;;8.10;99.90;;;;;;5057085;28;20517;-87
2021/12/14 05:38:42;;;;;;;14.30;9.83;;;8.10;99.90;;;;;;5074846;28;20980;-86
2021/12/14 05:43:53;;;;;;;15.90;8.83;;;8.10;99.90;;;;;;5075107;28;20488;-86
2021/12/14 05:46:21;;;;;;;15.93;11.63;;;8.10;99.90;;;;;;5077191;28;20425;-86
2021/12/14 05:48:47;;;;;;;19.17;10.67;;;8.10;99.90;;;;;;5094946;28;20199;-86
2021/12/14 05:51:13;;;;;;;14.80;10.53;;;8.00;99.90;;;;;;5094934;28;20490;-86
2021/12/14 05:53:42;;;;;;;14.07;10.10;;;8.00;99.90;;;;;;5094774;28;20210;-87
2021/12/14 05:56:12;;;;;;;13.00;10.33;;;8.10;99.90;;;;;;5093239;28;20635;-86
2021/12/14 05:58:38;;;;;;;15.80;10.97;;;8.10;99.90;;;;;;5094773;28;20787;-86
2021/12/14 06:01:07;;;;;;;15.90;11.60;;;8.00;99.90;;;;;;5094784;28;20411;-85
2021/12/14 06:03:38;;;;;;;19.40;11.70;;;8.10;99.90;;;;;;5094665;28;20423;-86
2021/12/14 06:06:12;;;;;;;13.83;10.67;;;8.00;99.90;;;;;;5094733;28;20404;-85
2021/12/14 06:08:37;;;;;;;13.17;9.87;;;8.10;99.90;;;;;;5094535;28;20447;-85
2021/12/14 06:11:03;;;;;;;11.33;8.10;;;8.10;99.90;;;;;;5094115;28;20819;-86
2021/12/14 06:13:55;;;;;;;15.80;10.40;;;8.00;99.90;;;;;;5094393;28;20291;-85
2021/12/14 06:16:29;;;;;;;12.87;9.13;;;8.00;99.90;;;;;;5090991;28;20651;-86
2021/12/14 06:19:24;;;;;;;12.40;9.63;;;8.00;99.90;;;;;;5073936;28;20408;-85
2021/12/14 06:22:13;;;;;;;13.87;9.60;;;8.00;99.90;;;;;;5074025;28;20766;-85
2021/12/14 06:24:44;;;;;;;16.40;10.30;;;8.00;99.90;;;;;;5073627;28;20811;-85
2021/12/14 06:27:14;;;;;;;17.27;10.90;;;8.00;99.90;;;;;;5072482;28;20483;-86
2021/12/14 06:30:02;;;;;;;16.27;10.80;;;8.10;99.90;;;;;;5073657;28;20425;-85
2021/12/14 06:32:38;;;;;;;17.77;10.20;;;8.10;99.90;;;;;;5054981;28;20833;-86
2021/12/14 06:35:19;;;;;;;12.37;8.97;;;8.10;99.90;;;;;;5073890;28;20419;-86
2021/12/14 06:38:23;;;;;;;12.80;9.70;;;8.10;99.90;;;;;;5072398;28;20482;-89
2021/12/14 06:41:13;;;;;;;17.27;11.03;;;8.10;99.90;;;;;;5086107;28;20420;-86
2021/12/14 06:43:52;;;;;;;14.63;9.10;;;8.10;99.90;;;;;;5093361;28;20463;-87
2021/12/14 06:46:22;;;;;;;15.60;10.53;;;8.10;99.90;;;;;;5092701;28;20492;-86
2021/12/14 06:48:59;;;;;;;12.97;10.07;;;8.10;99.90;;;;;;5093136;28;20797;-85
2021/12/14 06:51:24;;;;;;;16.70;9.43;;;8.10;99.90;;;;;;5093348;28;20861;-85
2021/12/14 06:53:55;;;;;;;13.97;9.27;;;8.10;99.90;;;;;;5093213;28;20492;-84
2021/12/14 06:56:25;;;;;;;12.77;8.97;;;8.10;99.90;;;;;;5092839;28;20173;-85
2021/12/14 06:59:04;;;;;;;16.00;10.40;;;8.10;99.90;;;;;;5093315;28;20452;-85
2021/12/14 07:01:34;;;;;;;15.37;11.50;;;8.10;99.90;;;;;;5090613;28;20421;-85
2021/12/14 07:04:03;;;;;;;15.40;10.83;;;8.10;99.90;;;;;;5093358;28;20420;-87
2021/12/14 07:06:35;;;;;;;17.47;11.10;;;8.10;99.90;;;;;;5090329;28;20931;-85
2021/12/14 07:09:09;;;;;;;18.70;11.40;;;8.10;99.90;;;;;;5093152;28;20504;-87
2021/12/14 07:11:36;;;;;;;13.57;11.47;;;8.10;99.90;;;;;;5090796;28;20420;-85
2021/12/14 07:14:06;;;;;;;15.53;10.60;;;8.10;99.90;;;;;;5093088;28;20421;-88
2021/12/14 07:16:38;;;;;;;17.57;10.63;;;8.10;99.90;;;;;;5093188;28;20416;-83
2021/12/14 07:19:06;;;;;;;14.00;9.73;;;8.10;99.90;;;;;;5089404;28;20926;-88
2021/12/14 07:21:47;;;;;;;14.50;10.43;;;8.10;99.90;;;;;;5092814;28;20784;-87
2021/12/14 07:24:21;;;;;;;15.80;10.17;;;8.20;99.90;;;;;;5082757;28;20440;-87
2021/12/14 07:26:49;;;;;;;17.60;11.50;;;8.10;99.90;;;;;;5092723;28;20423;-88
2021/12/14 07:29:22;;;;;;;20.73;11.27;;;8.10;99.90;;;;;;5092619;28;20409;-89
2021/12/14 07:31:47;;;;;;;15.40;10.87;;;8.10;99.90;;;;;;5092994;28;20424;-87
2021/12/14 07:34:13;;;;;;;14.03;11.33;;;8.10;99.90;;;;;;5093060;28;20428;-85
2021/12/14 07:36:39;;;;;;;13.37;9.70;;;8.10;99.90;;;;;;5091139;28;20544;-86
2021/12/14 07:39:11;;;;;;;15.30;10.27;;;8.10;99.90;;;;;;5091904;28;20828;-87
2021/12/14 07:41:46;;;;;;;18.47;11.20;;;8.20;99.90;;;;;;5090724;28;20452;-87
2021/12/14 07:44:13;;;;;;;15.43;9.80;;;8.10;99.90;;;;;;5087953;28;21635;-87
2021/12/14 07:46:52;;;;;;;19.43;12.33;;;8.10;99.90;;;;;;5091592;28;20921;-87
2021/12/14 07:49:23;;;;;;;14.13;10.27;;;8.20;99.90;;;;;;5091687;28;20400;-87
2021/12/14 07:52:11;;;;;;;16.03;11.27;;;8.20;99.90;;;;;;5090431;28;20407;-87
2021/12/14 07:54:40;;;;;;;16.00;10.60;;;8.20;99.90;;;;;;5097603;28;20438;-87
2021/12/14 07:57:09;;;;;;;17.73;11.80;;;8.20;99.90;;;;;;5090219;28;20409;-87
2021/12/14 08:00:00;;;;;;;16.27;10.50;;;8.20;99.90;;;;;;5096672;28;20424;-87
2021/12/14 08:02:36;;;;;;;18.87;10.90;;;8.20;99.90;;;;;;5093961;28;20478;-87
2021/12/14 08:05:23;;;;;;;19.00;10.80;;;8.20;99.90;;;;;;5096420;28;20411;-86
2021/12/14 08:07:57;;;;;;;17.17;10.90;;;8.20;99.90;;;;;;5093148;28;20414;-87
2021/12/14 08:10:29;;;;;;;20.53;12.77;;;8.20;99.90;;;;;;5096041;28;20447;-86
2021/12/14 08:13:04;;;;;;;18.77;12.67;;;8.20;99.90;;;;;;5096310;28;20461;-85
2021/12/14 08:15:32;;;;;;;14.70;10.83;;;8.10;99.90;;;;;;5094315;28;20500;-86
2021/12/14 08:18:11;;;;;;;19.47;12.73;;;8.10;99.90;;;;;;5096100;28;20474;-85
2021/12/14 08:20:44;;;;;;;21.20;12.97;;;8.00;99.90;;;;;;5092485;28;20417;-85
2021/12/14 08:23:38;;;;;;;21.23;12.80;;;8.00;99.90;;;;;;5093753;28;20855;-85
2021/12/14 08:26:06;;;;;;;19.57;12.73;;;8.00;99.90;;;;;;5061350;28;20458;-85
2021/12/14 08:28:44;;;;;;;23.10;14.33;;;8.00;99.90;;;;;;5096191;28;20409;-85
2021/12/14 08:31:10;;;;;;;19.40;11.70;;;8.00;99.90;;;;;;5093880;28;20417;-85
2021/12/14 08:33:35;;;;;;;22.90;13.60;;;8.00;99.90;;;;;;5095925;28;20486;-85
2021/12/14 08:36:05;;;;;;;23.67;14.03;;;8.10;99.90;;;;;;5095975;28;20410;-84
2021/12/14 08:38:33;;;;;;;24.13;13.00;;;8.00;99.90;;;;;;5095785;28;20625;-87
2021/12/14 08:41:13;;;;;;;18.87;12.27;;;8.10;99.90;;;;;;5094224;28;20405;-86
2021/12/14 08:43:47;;;;;;;19.80;14.40;;;8.10;99.90;;;;;;5093722;28;20434;-86
2021/12/14 08:46:30;;;;;;;23.33;15.50;;;8.10;99.90;;;;;;5094019;28;20454;-86
2021/12/14 08:49:02;;;;;;;29.87;16.57;;;8.20;99.90;;;;;;5094349;28;20412;-85
2021/12/14 08:51:30;;;;;;;25.87;16.80;;;8.20;99.90;;;;;;5093142;28;20421;-87
2021/12/14 08:54:13;;;;;;;22.57;13.90;;;8.20;99.90;;;;;;5093272;28;20471;-86
2021/12/14 08:56:44;;;;;;;22.07;14.40;;;8.20;99.90;;;;;;5093437;28;20447;-87
2021/12/14 08:59:09;;;;;;;19.90;14.63;;;8.20;99.90;;;;;;5095430;28;20461;-87
2021/12/14 09:01:36;;;;;;;24.17;14.57;;;8.30;99.90;;;;;;5095344;28;20449;-87
2021/12/14 09:04:09;;;;;;;24.53;14.97;;;8.30;99.90;;;;;;5095598;28;20843;-87
2021/12/14 09:06:37;;;;;;;22.50;15.67;;;8.30;99.90;;;;;;5094064;28;20508;-87
2021/12/14 09:09:06;;;;;;;27.47;16.33;;;8.30;99.90;;;;;;5093646;28;20427;-87
2021/12/14 09:11:35;;;;;;;23.77;16.13;;;8.40;99.90;;;;;;5097140;28;20489;-87
2021/12/14 09:14:02;;;;;;;29.50;16.53;;;8.30;99.90;;;;;;5100260;28;20423;-87
2021/12/14 09:16:31;;;;;;;25.70;16.27;;;8.30;99.90;;;;;;5094476;28;20809;-86
2021/12/14 09:19:03;;;;;;;27.97;16.50;;;8.30;99.90;;;;;;5097854;28;20761;-84
2021/12/14 09:21:34;;;;;;;24.03;15.13;;;8.30;99.90;;;;;;5096470;28;20441;-82
2021/12/14 09:24:05;;;;;;;24.70;14.87;;;8.40;99.90;;;;;;5095216;28;20563;-85
2021/12/14 09:26:34;;;;;;;21.20;14.33;;;8.40;99.90;;;;;;5095059;28;20422;-85
2021/12/14 09:29:00;;;;;;;24.07;15.80;;;8.40;99.90;;;;;;5091951;28;20429;-85
2021/12/14 09:31:31;;;;;;;26.87;16.33;;;8.50;99.90;;;;;;5079648;28;20544;-84
2021/12/14 09:33:59;;;;;;;26.40;15.70;;;8.50;99.90;;;;;;5094879;28;20472;-85
2021/12/14 09:36:28;;;;;;;21.17;15.00;;;8.40;99.90;;;;;;5094696;28;20459;-85
2021/12/14 09:38:58;;;;;;;27.30;16.30;;;8.40;99.90;;;;;;5094788;28;20457;-85
2021/12/14 09:41:28;;;;;;;24.50;14.70;;;8.40;99.90;;;;;;5077275;28;20413;-83
2021/12/14 09:43:55;;;;;;;24.83;15.13;;;8.40;99.90;;;;;;5074548;28;20424;-82
2021/12/14 09:46:22;;;;;;;26.20;14.67;;;8.40;99.90;;;;;;5074648;28;20412;-85
2021/12/14 09:48:53;;;;;;;32.53;18.70;;;8.40;99.90;;;;;;5086079;28;20520;-87
2021/12/14 09:51:39;;;;;;;22.80;14.90;;;8.40;99.90;;;;;;5092995;28;20451;-87
2021/12/14 09:54:07;;;;;;;26.73;17.50;;;8.50;99.90;;;;;;5091925;28;20437;-87
2021/12/14 09:56:39;;;;;;;28.93;17.17;;;8.40;99.90;;;;;;5074198;28;20448;-86
2021/12/14 09:59:08;;;;;;;26.07;15.90;;;8.40;99.90;;;;;;5085647;28;20434;-87
2021/12/14 10:02:00;;;;;;;25.07;15.90;;;8.40;99.90;;;;;;5092468;28;20416;-85
2021/12/14 10:04:52;;;;;;;30.83;17.47;;;8.50;99.90;;;;;;5093234;28;20416;-86
2021/12/14 10:07:19;;;;;;;27.40;17.47;;;8.40;99.90;;;;;;5081185;28;20421;-83
2021/12/14 10:09:48;;;;;;;27.10;15.80;;;8.40;99.90;;;;;;5079325;28;20466;-91
2021/12/14 10:14:52;;;;;;;31.10;18.67;;;8.50;99.90;;;;;;5074220;28;20510;-91
2021/12/14 10:17:20;;;;;;;31.13;17.70;;;8.40;99.90;;;;;;5073037;28;20424;-92
2021/12/14 10:19:48;;;;;;;29.87;17.20;;;8.40;99.90;;;;;;5082941;28;20939;-87
2021/12/14 10:22:17;;;;;;;32.97;17.27;;;8.40;99.90;;;;;;5092950;28;20425;-94
2021/12/14 10:24:43;;;;;;;31.10;16.80;;;8.40;99.90;;;;;;5093853;28;20432;-90
2021/12/14 10:27:14;;;;;;;25.30;17.37;;;8.50;99.90;;;;;;5093843;28;21135;-87
2021/12/14 10:29:41;;;;;;;24.97;15.40;;;8.50;99.90;;;;;;5092963;28;20172;-90
2021/12/14 10:32:16;;;;;;;22.53;16.23;;;8.50;99.90;;;;;;5092277;28;20460;-89
2021/12/14 10:34:46;;;;;;;24.77;14.90;;;8.50;99.90;;;;;;5094889;28;20481;-86
2021/12/14 10:37:21;;;;;;;25.87;16.80;;;8.50;99.90;;;;;;5092265;28;20419;-88
2021/12/14 10:43:12;;;;;;;27.90;17.33;;;8.50;99.90;;;;;;5093461;28;20411;-88
2021/12/14 10:45:42;;;;;;;24.30;16.40;;;8.50;99.90;;;;;;5091940;28;20427;-87
2021/12/14 10:48:08;;;;;;;30.10;17.73;;;8.50;99.90;;;;;;5094177;28;20424;-88
2021/12/14 10:50:36;;;;;;;25.23;16.83;;;8.50;99.90;;;;;;5092685;28;20777;-91
2021/12/14 10:53:05;;;;;;;28.07;16.80;;;8.60;99.90;;;;;;5093482;28;20476;-90
2021/12/14 10:56:02;;;;;;;35.03;18.20;;;8.50;99.90;;;;;;5092603;28;20424;-88
2021/12/14 10:58:29;;;;;;;25.33;17.03;;;8.50;99.90;;;;;;5087174;28;20459;-87
2021/12/14 11:01:00;;;;;;;24.83;17.40;;;8.50;99.90;;;;;;5091868;28;20418;-88
2021/12/14 11:03:35;;;;;;;29.53;18.07;;;8.50;99.90;;;;;;5091330;28;20440;-87
2021/12/14 11:06:06;;;;;;;29.57;15.97;;;8.50;99.90;;;;;;5091826;28;20427;-87
2021/12/14 11:08:38;;;;;;;27.40;16.03;;;8.50;99.90;;;;;;5093016;28;20539;-86
2021/12/14 11:11:14;;;;;;;26.70;16.80;;;8.50;99.90;;;;;;5091886;28;20956;-86
2021/12/14 11:13:46;;;;;;;29.93;19.20;;;8.50;99.90;;;;;;5092306;28;20465;-87
2021/12/14 11:16:20;;;;;;;28.47;18.53;;;8.50;99.90;;;;;;5091420;28;20416;-87
2021/12/14 11:18:48;;;;;;;31.50;18.73;;;8.50;99.90;;;;;;5093280;28;20916;-91
2021/12/14 11:21:21;;;;;;;33.90;20.77;;;8.50;99.90;;;;;;5090668;28;20432;-88
2021/12/14 11:23:51;;;;;;;28.30;19.33;;;8.50;99.90;;;;;;5090574;28;20423;-86
2021/12/14 11:26:39;;;;;;;30.23;18.10;;;8.50;99.90;;;;;;5092165;28;20432;-89
2021/12/14 11:29:11;;;;;;;28.33;18.73;;;8.50;99.90;;;;;;5091950;28;20500;-86
2021/12/14 11:31:54;;;;;;;26.50;17.33;;;8.50;99.90;;;;;;5092071;28;20421;-90
2021/12/14 11:34:36;;;;;;;31.03;19.43;;;8.50;99.90;;;;;;5092209;28;20429;-90
2021/12/14 11:37:08;;;;;;;29.70;17.53;;;8.50;99.90;;;;;;5093817;28;20414;-90
2021/12/14 11:39:46;;;;;;;24.20;17.13;;;8.50;99.90;;;;;;5093051;28;20453;-90
2021/12/14 11:42:18;;;;;;;29.70;17.90;;;8.50;99.90;;;;;;5096293;28;20918;-90
2021/12/14 11:44:48;;;;;;;28.13;16.90;;;8.50;99.90;;;;;;5097779;28;20493;-90
2021/12/14 11:48:01;;;;;;;27.43;16.10;;;8.50;99.90;;;;;;5093686;28;20435;-91
2021/12/14 11:50:22;;;;;;;26.07;15.37;;;8.60;99.90;;;;;;5086944;28;20510;-87
2021/12/14 11:53:06;;;;;;;30.27;16.93;;;8.60;99.90;;;;;;5090930;28;20470;-90
2021/12/14 11:55:58;;;;;;;28.63;17.30;;;8.70;99.90;;;;;;5089820;28;20431;-87
2021/12/14 11:58:55;;;;;;;25.80;17.43;;;8.60;99.90;;;;;;5069324;28;20426;-89
2021/12/14 12:01:29;;;;;;;25.57;15.73;;;8.70;99.90;;;;;;5071767;28;20493;-89
2021/12/14 12:04:09;;;;;;;30.40;17.30;;;8.70;99.90;;;;;;5071838;28;20409;-90
2021/12/14 12:09:28;;;;;;;26.43;17.53;;;8.70;99.90;;;;;;5074864;28;20431;-90
2021/12/14 12:12:25;;;;;;;28.90;17.60;;;8.70;99.90;;;;;;5072286;28;20450;-93
2021/12/14 12:15:12;;;;;;;28.00;16.00;;;8.70;99.90;;;;;;5081085;28;20508;-92
2021/12/14 12:17:51;;;;;;;24.30;16.00;;;8.70;99.90;;;;;;5093563;28;20930;-80
2021/12/14 12:20:45;;;;;;;30.73;17.20;;;8.70;99.90;;;;;;5092110;28;20514;-88
2021/12/14 12:23:21;;;;;;;29.57;16.97;;;8.70;99.90;;;;;;5090928;28;20526;-88
2021/12/14 12:25:57;;;;;;;24.27;14.10;;;8.70;99.90;;;;;;5091389;28;20618;-88
2021/12/14 12:28:27;;;;;;;29.43;15.13;;;8.70;99.90;;;;;;5092831;28;20414;-87
2021/12/14 12:31:06;;;;;;;22.70;13.60;;;8.70;99.90;;;;;;5090444;28;20467;-88
2021/12/14 12:33:37;;;;;;;23.40;14.17;;;8.70;99.90;;;;;;5091627;28;20534;-89
2021/12/14 12:36:24;;;;;;;26.37;14.23;;;8.70;99.90;;;;;;5092000;28;20412;-87
2021/12/14 12:38:55;;;;;;;26.10;13.50;;;8.70;99.90;;;;;;5090726;28;20572;-89
2021/12/14 12:41:42;;;;;;;23.90;13.87;;;8.70;99.90;;;;;;5092639;28;20414;-87
2021/12/14 12:44:17;;;;;;;25.67;15.30;;;8.70;99.90;;;;;;5095639;28;20420;-89
2021/12/14 12:46:54;;;;;;;22.33;13.33;;;8.70;99.90;;;;;;5095714;28;20456;-89
2021/12/14 12:49:25;;;;;;;20.43;12.67;;;8.70;99.90;;;;;;5096503;28;20436;-93
2021/12/14 12:51:50;;;;;;;23.47;13.80;;;8.70;99.90;;;;;;5096297;28;20437;-89
2021/12/14 12:54:19;;;;;;;24.77;14.30;;;8.70;99.90;;;;;;5093462;28;20938;-88
2021/12/14 12:56:48;;;;;;;20.87;14.10;;;8.70;99.90;;;;;;5094767;28;20176;-88
2021/12/14 12:59:34;;;;;;;22.17;14.07;;;8.60;99.90;;;;;;5094429;28;20430;-90
2021/12/14 13:02:18;;;;;;;22.40;13.70;;;8.60;99.90;;;;;;5096119;28;20454;-88
2021/12/14 13:04:47;;;;;;;20.83;12.53;;;8.60;99.90;;;;;;5096373;28;20407;-92
2021/12/14 13:07:13;;;;;;;23.10;13.07;;;8.60;99.90;;;;;;5096208;28;20409;-94
2021/12/14 13:09:58;;;;;;;18.57;12.90;;;8.60;99.90;;;;;;5095819;28;20477;-89
2021/12/14 13:12:48;;;;;;;24.50;14.97;;;8.60;99.90;;;;;;5095067;28;20675;-89
2021/12/14 13:15:39;;;;;;;18.77;11.87;;;8.60;99.90;;;;;;5096110;28;20398;-89
2021/12/14 13:18:20;;;;;;;21.53;14.20;;;8.60;99.90;;;;;;5094759;28;20478;-91
2021/12/14 13:20:49;;;;;;;21.07;14.00;;;8.60;99.90;;;;;;5095866;28;20405;-91
2021/12/14 13:23:15;;;;;;;25.00;14.53;;;8.60;99.90;;;;;;5096557;28;20397;-92
2021/12/14 13:25:43;;;;;;;22.63;13.37;;;8.60;99.90;;;;;;5095084;28;20513;-94
2021/12/14 13:28:10;;;;;;;25.20;13.77;;;8.60;99.90;;;;;;5095969;28;20409;-91
2021/12/14 13:30:36;;;;;;;23.07;15.00;;;8.60;99.90;;;;;;5095773;28;20414;-91
2021/12/14 13:33:02;;;;;;;23.23;13.47;;;8.60;99.90;;;;;;5095523;28;20469;-88
2021/12/14 13:35:35;;;;;;;21.80;16.00;;;8.60;99.90;;;;;;5094421;28;20854;-89
2021/12/14 13:38:10;;;;;;;22.23;13.73;;;8.60;99.90;;;;;;5095581;28;21004;-92
2021/12/14 13:40:40;;;;;;;22.57;12.80;;;8.60;99.90;;;;;;5095722;28;20400;-94
2021/12/14 13:43:17;;;;;;;19.17;12.97;;;8.60;99.90;;;;;;5095138;28;20521;-90